createdAt,value
2023-03-17T00:01:51.043Z,30.73
2023-03-17T00:04:53.514Z,30.59
2023-03-17T00:08:01.476Z,30.85
2023-03-17T00:11:03.938Z,31.24
2023-03-17T00:14:06.326Z,31.28
2023-03-17T00:17:09.954Z,31.34
2023-03-17T00:20:17.431Z,31.04
2023-03-17T00:23:22.290Z,31.32
2023-03-17T00:26:25.342Z,31.69
2023-03-17T00:29:27.980Z,31.56
2023-03-17T00:32:30.179Z,31.23
2023-03-17T00:35:33.374Z,31.42
2023-03-17T00:38:35.558Z,31.88
2023-03-17T00:41:38.459Z,31.45
2023-03-17T00:44:41.841Z,31.74
2023-03-17T00:47:45.389Z,32.25
2023-03-17T00:50:49.774Z,31.98
2023-03-17T00:53:52.732Z,31.99
2023-03-17T00:56:55.381Z,31.40
2023-03-17T00:59:57.559Z,31.82
2023-03-17T01:02:59.750Z,31.79
2023-03-17T01:06:04.675Z,31.47
2023-03-17T01:09:08.229Z,32.12
2023-03-17T01:12:12.856Z,31.95
2023-03-17T01:15:15.859Z,32.60
2023-03-17T01:18:21.287Z,32.27
2023-03-17T01:21:23.790Z,32.02
2023-03-17T01:24:28.511Z,32.06
2023-03-17T01:27:35.053Z,32.07
2023-03-17T01:30:39.318Z,32.06
2023-03-17T01:33:41.510Z,32.37
2023-03-17T01:36:43.763Z,32.43
2023-03-17T01:39:46.619Z,32.34
2023-03-17T01:43:09.164Z,32.73
2023-03-17T01:46:31.725Z,32.41
2023-03-17T01:49:37.527Z,33.25
2023-03-17T01:52:40.062Z,32.56
2023-03-17T01:55:44.828Z,32.65
2023-03-17T01:58:49.565Z,32.43
2023-03-17T02:01:54.992Z,32.86
2023-03-17T02:04:57.912Z,32.50
2023-03-17T02:08:00.264Z,32.90
2023-03-17T02:11:05.302Z,32.57
2023-03-17T02:14:08.877Z,32.99
2023-03-17T02:17:11.198Z,32.97
2023-03-17T02:20:16.324Z,32.39
2023-03-17T02:23:24.761Z,33.38
2023-03-17T02:26:29.114Z,33.14
2023-03-17T02:29:34.939Z,32.56
2023-03-17T02:32:38.110Z,33.10
2023-03-17T02:35:41.492Z,32.59
2023-03-17T02:38:43.886Z,33.27
2023-03-17T02:41:46.165Z,33.21
2023-03-17T02:44:49.501Z,33.01
2023-03-17T02:47:54.340Z,33.28
2023-03-17T02:50:56.540Z,33.13
2023-03-17T02:53:58.737Z,33.37
2023-03-17T02:57:01.137Z,33.25
2023-03-17T03:00:03.990Z,33.18
2023-03-17T03:03:06.326Z,33.06
2023-03-17T03:06:08.668Z,33.22
2023-03-17T03:09:11.906Z,33.53
2023-03-17T03:12:14.385Z,33.44
2023-03-17T03:15:16.705Z,33.07
2023-03-17T03:18:18.888Z,33.21
2023-03-17T03:21:22.107Z,33.59
2023-03-17T03:24:24.295Z,33.78
2023-03-17T03:27:26.641Z,33.74
2023-03-17T03:30:29.151Z,33.88
2023-03-17T03:33:31.847Z,33.39
2023-03-17T03:36:34.176Z,33.16
2023-03-17T03:39:37.544Z,33.13
2023-03-17T03:42:39.747Z,33.45
2023-03-17T03:45:42.094Z,33.67
2023-03-17T03:48:44.326Z,33.80
2023-03-17T03:51:46.496Z,33.74
2023-03-17T03:54:48.983Z,33.61
2023-03-17T03:57:51.360Z,33.63
2023-03-17T04:00:53.560Z,34.13
2023-03-17T04:03:55.802Z,34.00
2023-03-17T04:06:58.002Z,33.93
2023-03-17T04:10:00.196Z,33.74
2023-03-17T04:13:02.552Z,33.76
2023-03-17T04:16:05.108Z,34.07
2023-03-17T04:19:07.694Z,33.97
2023-03-17T04:22:11.958Z,33.88
2023-03-17T04:25:15.040Z,33.71
2023-03-17T04:28:17.714Z,34.09
2023-03-17T04:31:20.077Z,33.73
2023-03-17T04:34:23.116Z,33.80
2023-03-17T04:37:25.778Z,34.03
2023-03-17T04:40:29.388Z,33.82
2023-03-17T04:43:31.692Z,34.26
2023-03-17T04:46:34.021Z,34.46
2023-03-17T04:49:36.286Z,34.21
2023-03-17T04:52:38.957Z,34.24
2023-03-17T04:55:41.369Z,34.18
2023-03-17T04:58:43.630Z,34.61
2023-03-17T05:01:46.095Z,34.54
2023-03-17T05:04:48.660Z,34.43
2023-03-17T05:07:50.876Z,34.30
2023-03-17T05:10:53.093Z,34.36
2023-03-17T05:13:55.375Z,33.75
2023-03-17T05:16:57.687Z,33.92
2023-03-17T05:19:59.903Z,34.15
2023-03-17T05:23:02.134Z,34.16
2023-03-17T05:26:04.870Z,33.95
2023-03-17T05:29:07.327Z,34.37
2023-03-17T05:32:09.708Z,34.04
2023-03-17T05:35:11.820Z,34.33
2023-03-17T05:38:15.932Z,34.22
2023-03-17T05:41:18.090Z,34.46
2023-03-17T05:44:20.857Z,34.30
2023-03-17T05:47:23.163Z,34.52
2023-03-17T05:50:26.064Z,34.44
2023-03-17T05:53:28.591Z,34.42
2023-03-17T05:56:33.716Z,34.62
2023-03-17T05:59:36.225Z,34.56
2023-03-17T06:02:39.155Z,34.98
2023-03-17T06:05:41.926Z,34.70
2023-03-17T06:08:44.634Z,35.08
2023-03-17T06:11:46.808Z,35.00
2023-03-17T06:14:49.043Z,34.59
2023-03-17T06:17:51.810Z,34.53
2023-03-17T06:20:54.075Z,34.70
2023-03-17T06:23:56.233Z,34.29
2023-03-17T06:26:58.457Z,34.28
2023-03-17T06:30:00.693Z,33.60
2023-03-17T06:33:03.823Z,33.86
2023-03-17T06:36:06.485Z,34.15
2023-03-17T06:39:09.569Z,33.12
2023-03-17T06:42:12.019Z,33.61
2023-03-17T06:45:14.350Z,33.27
2023-03-17T06:48:16.821Z,33.16
2023-03-17T06:51:18.992Z,32.74
2023-03-17T06:54:23.916Z,32.36
2023-03-17T06:57:26.265Z,32.60
2023-03-17T07:00:30.400Z,32.50
2023-03-17T07:03:33.738Z,32.68
2023-03-17T07:06:36.086Z,32.47
2023-03-17T07:09:40.406Z,32.64
2023-03-17T07:12:47.274Z,32.33
2023-03-17T07:15:55.238Z,32.28
2023-03-17T07:18:58.195Z,31.77
2023-03-17T07:22:00.495Z,31.67
2023-03-17T07:25:02.686Z,31.92
2023-03-17T07:28:07.434Z,31.30
2023-03-17T07:31:11.563Z,31.58
2023-03-17T07:34:14.011Z,30.85
2023-03-17T07:37:16.198Z,31.20
2023-03-17T07:40:18.650Z,30.79
2023-03-17T07:43:21.046Z,30.54
2023-03-17T07:46:23.713Z,30.65
2023-03-17T07:49:40.360Z,30.73
2023-03-17T07:52:43.857Z,30.26
2023-03-17T07:55:46.442Z,30.68
2023-03-17T07:58:48.788Z,30.22
2023-03-17T08:01:52.214Z,30.07
2023-03-17T08:04:57.257Z,29.86
2023-03-17T08:07:59.613Z,29.50
2023-03-17T08:11:06.386Z,29.48
2023-03-17T08:14:16.782Z,29.17
2023-03-17T08:17:19.792Z,28.81
2023-03-17T08:20:22.613Z,29.06
2023-03-17T08:23:26.137Z,28.72
2023-03-17T08:26:29.742Z,27.55
2023-03-17T08:29:33.570Z,27.53
2023-03-17T08:32:36.941Z,26.81
2023-03-17T08:35:41.588Z,26.69
2023-03-17T08:38:45.000Z,26.10
2023-03-17T08:41:47.196Z,26.34
2023-03-17T08:44:49.900Z,25.95
2023-03-17T08:47:59.942Z,26.08
2023-03-17T08:51:02.435Z,25.34
2023-03-17T08:54:05.997Z,25.15
2023-03-17T08:57:08.352Z,25.77
2023-03-17T09:00:22.172Z,25.47
2023-03-17T09:03:24.581Z,25.31
2023-03-17T09:06:30.311Z,24.79
2023-03-17T09:09:34.869Z,24.88
2023-03-17T09:12:38.063Z,25.03
2023-03-17T09:15:40.566Z,25.10
2023-03-17T09:18:43.179Z,24.94
2023-03-17T09:21:45.433Z,25.08
2023-03-17T09:24:47.972Z,24.85
2023-03-17T09:27:50.402Z,24.66
2023-03-17T09:30:52.915Z,24.75
2023-03-17T09:33:55.206Z,24.58
2023-03-17T09:36:59.760Z,24.53
2023-03-17T09:40:05.129Z,24.23
2023-03-17T09:43:31.160Z,23.86
2023-03-17T09:47:02.441Z,24.15
2023-03-17T09:50:10.935Z,24.45
2023-03-17T09:53:18.895Z,24.14
2023-03-17T09:56:24.779Z,23.88
2023-03-17T09:59:40.442Z,24.43
2023-03-17T10:02:43.426Z,23.89
2023-03-17T10:05:46.901Z,23.80
2023-03-17T10:09:27.221Z,23.97
2023-03-17T10:12:51.366Z,24.05
2023-03-17T10:16:04.126Z,23.47
2023-03-17T10:19:18.596Z,23.39
2023-03-17T10:22:46.643Z,23.24
2023-03-17T10:25:51.248Z,23.25
2023-03-17T10:28:59.886Z,23.25
2023-03-17T10:32:02.206Z,23.11
2023-03-17T10:35:12.700Z,22.82
2023-03-17T10:38:19.302Z,22.64
2023-03-17T10:41:22.114Z,23.02
2023-03-17T10:44:43.207Z,22.67
2023-03-17T10:47:50.979Z,22.55
2023-03-17T10:50:56.883Z,22.84
2023-03-17T10:54:10.179Z,22.54
2023-03-17T10:57:15.898Z,22.59
2023-03-17T11:00:23.375Z,22.18
2023-03-17T11:03:31.284Z,22.17
2023-03-17T11:06:43.894Z,23.13
2023-03-17T11:09:50.694Z,22.39
2023-03-17T11:13:01.876Z,22.18
2023-03-17T11:16:11.047Z,22.56
2023-03-17T11:19:16.164Z,22.35
2023-03-17T11:22:30.490Z,22.40
2023-03-17T11:25:34.787Z,22.42
2023-03-17T11:28:41.146Z,21.73
2023-03-17T11:31:51.751Z,21.99
2023-03-17T11:35:03.574Z,21.76
2023-03-17T11:38:25.173Z,21.79
2023-03-17T11:41:36.352Z,21.67
2023-03-17T11:44:50.428Z,21.08
2023-03-17T11:48:02.676Z,21.19
2023-03-17T11:51:15.400Z,20.57
2023-03-17T11:54:46.132Z,20.90
2023-03-17T11:58:13.731Z,20.80
2023-03-17T12:01:30.668Z,20.50
2023-03-17T12:04:56.095Z,20.14
2023-03-17T12:08:19.357Z,19.98
2023-03-17T12:11:25.450Z,19.50
2023-03-17T12:14:35.073Z,20.00
2023-03-17T12:18:02.788Z,20.21
2023-03-17T12:21:14.688Z,20.25
2023-03-17T12:24:38.474Z,20.57
2023-03-17T12:28:10.975Z,20.38
2023-03-17T12:31:20.458Z,19.87
2023-03-17T12:34:27.179Z,19.86
2023-03-17T12:37:30.219Z,19.30
2023-03-17T12:40:46.834Z,19.77
2023-03-17T12:44:05.610Z,19.73
2023-03-17T12:47:41.984Z,20.01
2023-03-17T12:50:47.233Z,20.21
2023-03-17T12:53:51.528Z,19.78
2023-03-17T12:57:08.105Z,20.34
2023-03-17T13:00:29.739Z,19.71
2023-03-17T13:03:33.458Z,19.93
2023-03-17T13:06:48.098Z,20.46
2023-03-17T13:09:53.321Z,20.32
2023-03-17T13:13:05.656Z,20.45
2023-03-17T13:16:26.802Z,20.60
2023-03-17T13:19:33.585Z,20.32
2023-03-17T13:22:41.645Z,20.46
2023-03-17T13:25:55.373Z,20.47
2023-03-17T13:29:03.349Z,20.18
2023-03-17T13:32:24.793Z,20.07
2023-03-17T13:35:45.157Z,20.03
2023-03-17T13:39:18.717Z,20.41
2023-03-17T13:42:40.275Z,19.91
2023-03-17T13:45:47.577Z,19.78
2023-03-17T13:48:50.132Z,20.10
2023-03-17T13:52:04.617Z,20.39
2023-03-17T13:55:20.383Z,20.40
2023-03-17T13:58:24.885Z,20.40
2023-03-17T14:01:28.937Z,20.62
2023-03-17T14:04:42.355Z,20.55
2023-03-17T14:08:04.938Z,21.00
2023-03-17T14:11:15.573Z,20.63
2023-03-17T14:14:32.634Z,21.03
2023-03-17T14:17:41.773Z,20.84
2023-03-17T14:20:55.493Z,21.15
2023-03-17T14:24:00.281Z,21.02
2023-03-17T14:27:09.291Z,20.80
2023-03-17T14:30:38.387Z,21.12
2023-03-17T14:33:41.312Z,21.33
2023-03-17T14:36:43.669Z,21.17
2023-03-17T14:39:54.804Z,21.19
2023-03-17T14:42:57.417Z,21.22
2023-03-17T14:46:05.222Z,20.75
2023-03-17T14:49:18.414Z,20.74
2023-03-17T14:52:26.446Z,21.09
2023-03-17T14:55:39.675Z,20.92
2023-03-17T14:58:44.503Z,21.02
2023-03-17T15:01:48.584Z,20.61
2023-03-17T15:04:57.548Z,20.59
2023-03-17T15:07:59.892Z,20.66
2023-03-17T15:11:04.122Z,21.09
2023-03-17T15:14:16.502Z,20.78
2023-03-17T15:17:21.239Z,20.56
2023-03-17T15:20:23.785Z,20.64
2023-03-17T15:23:29.041Z,20.46
2023-03-17T15:26:31.573Z,20.73
2023-03-17T15:29:34.103Z,20.38
2023-03-17T15:32:36.596Z,20.45
2023-03-17T15:35:38.991Z,20.49
2023-03-17T15:38:41.378Z,20.70
2023-03-17T15:41:43.616Z,20.34
2023-03-17T15:44:46.038Z,20.38
2023-03-17T15:47:48.409Z,20.71
2023-03-17T15:50:51.422Z,20.39
2023-03-17T15:53:53.705Z,20.25
2023-03-17T15:56:57.059Z,20.08
2023-03-17T15:59:59.315Z,20.20
2023-03-17T16:03:26.986Z,20.16
2023-03-17T16:06:29.290Z,20.14
2023-03-17T16:09:31.970Z,20.22
2023-03-17T16:12:34.183Z,20.67
2023-03-17T16:15:38.833Z,20.74
2023-03-17T16:18:41.853Z,20.41
2023-03-17T16:21:44.328Z,20.23
2023-03-17T16:24:46.537Z,20.56
2023-03-17T16:27:51.396Z,20.87
2023-03-17T16:30:55.382Z,21.14
2023-03-17T16:33:57.995Z,21.27
2023-03-17T16:37:00.326Z,21.73
2023-03-17T16:40:02.809Z,22.04
2023-03-17T16:43:12.937Z,22.02
2023-03-17T16:46:20.005Z,22.16
2023-03-17T16:49:23.017Z,22.17
2023-03-17T16:52:25.690Z,22.50
2023-03-17T16:55:29.008Z,22.55
2023-03-17T16:58:33.745Z,23.03
2023-03-17T17:01:35.968Z,22.74
2023-03-17T17:04:39.730Z,23.01
2023-03-17T17:07:42.330Z,23.47
2023-03-17T17:10:44.490Z,22.95
2023-03-17T17:13:48.366Z,23.38
2023-03-17T17:16:50.611Z,23.41
2023-03-17T17:19:52.695Z,23.60
2023-03-17T17:22:55.550Z,23.80
2023-03-17T17:25:57.773Z,23.79
2023-03-17T17:29:00.041Z,23.68
2023-03-17T17:32:02.326Z,23.93
2023-03-17T17:35:04.828Z,24.24
2023-03-17T17:38:16.592Z,24.60
2023-03-17T17:41:21.584Z,25.14
2023-03-17T17:44:23.760Z,24.99
2023-03-17T17:47:26.166Z,24.77
2023-03-17T17:50:30.108Z,25.24
2023-03-17T17:53:32.557Z,25.37
2023-03-17T17:56:38.081Z,25.48
2023-03-17T17:59:40.371Z,25.48
2023-03-17T18:02:42.939Z,25.53
2023-03-17T18:05:45.109Z,26.09
2023-03-17T18:08:47.251Z,25.97
2023-03-17T18:11:49.468Z,26.29
2023-03-17T18:14:51.658Z,26.15
2023-03-17T18:17:54.192Z,26.18
2023-03-17T18:20:56.394Z,26.21
2023-03-17T18:23:59.526Z,26.21
2023-03-17T18:27:03.795Z,26.50
2023-03-17T18:30:08.609Z,26.44
2023-03-17T18:33:19.877Z,26.59
2023-03-17T18:36:22.400Z,26.76
2023-03-17T18:39:24.556Z,26.83
2023-03-17T18:42:27.283Z,26.47
2023-03-17T18:45:29.466Z,26.85
2023-03-17T18:48:31.758Z,26.89
2023-03-17T18:51:34.122Z,26.64
2023-03-17T18:54:37.600Z,27.07
2023-03-17T18:57:42.590Z,26.95
2023-03-17T19:00:46.951Z,26.81
2023-03-17T19:03:49.382Z,27.01
2023-03-17T19:06:51.576Z,27.49
2023-03-17T19:09:53.859Z,27.21
2023-03-17T19:12:56.158Z,27.72
2023-03-17T19:15:58.324Z,28.44
2023-03-17T19:19:00.850Z,28.73
2023-03-17T19:22:03.929Z,28.43
2023-03-17T19:25:06.729Z,28.40
2023-03-17T19:28:08.936Z,28.24
2023-03-17T19:31:11.427Z,28.41
2023-03-17T19:34:15.300Z,28.19
2023-03-17T19:37:17.511Z,28.34
2023-03-17T19:40:19.824Z,28.30
2023-03-17T19:43:39.103Z,28.51
2023-03-17T19:46:41.951Z,28.35
2023-03-17T19:49:44.139Z,28.40
2023-03-17T19:52:46.596Z,28.82
2023-03-17T19:55:49.157Z,28.87
2023-03-17T19:58:51.519Z,28.77
2023-03-17T20:01:53.755Z,29.20
2023-03-17T20:04:56.069Z,29.09
2023-03-17T20:07:58.353Z,28.85
2023-03-17T20:11:00.748Z,29.18
2023-03-17T20:14:03.746Z,29.15
2023-03-17T20:17:05.955Z,29.26
2023-03-17T20:20:10.595Z,29.58
2023-03-17T20:23:13.886Z,29.40
2023-03-17T20:26:16.109Z,29.27
2023-03-17T20:29:18.329Z,29.50
2023-03-17T20:32:20.976Z,29.64
2023-03-17T20:35:24.865Z,29.73
2023-03-17T20:38:27.957Z,30.08
2023-03-17T20:41:30.746Z,29.68
2023-03-17T20:44:32.936Z,29.90
2023-03-17T20:47:35.206Z,29.71
2023-03-17T20:50:38.817Z,29.68
2023-03-17T20:53:40.977Z,29.84
2023-03-17T20:56:44.152Z,29.98
2023-03-17T20:59:46.356Z,30.00
2023-03-17T21:02:50.343Z,30.36
2023-03-17T21:05:53.423Z,30.16
2023-03-17T21:08:55.814Z,29.77
2023-03-17T21:11:58.093Z,29.81
2023-03-17T21:15:00.721Z,30.01
2023-03-17T21:18:03.135Z,29.81
2023-03-17T21:21:05.723Z,29.92
2023-03-17T21:24:09.560Z,30.03
2023-03-17T21:27:12.632Z,30.00
2023-03-17T21:30:15.801Z,30.11
2023-03-17T21:33:18.329Z,29.91
2023-03-17T21:36:21.291Z,29.84
2023-03-17T21:39:24.068Z,30.04
2023-03-17T21:42:29.405Z,30.31
2023-03-17T21:45:31.944Z,30.56
2023-03-17T21:48:34.197Z,30.32
2023-03-17T21:51:36.441Z,30.53
2023-03-17T21:54:38.725Z,30.55
2023-03-17T21:57:41.036Z,30.16
2023-03-17T22:00:45.957Z,30.51
2023-03-17T22:03:49.615Z,30.68
2023-03-17T22:06:52.145Z,30.74
2023-03-17T22:09:56.974Z,30.89
2023-03-17T22:12:59.213Z,30.58
2023-03-17T22:16:02.248Z,30.74
2023-03-17T22:19:04.480Z,30.54
2023-03-17T22:22:06.729Z,30.50
2023-03-17T22:25:09.092Z,30.78
2023-03-17T22:28:11.312Z,30.72
2023-03-17T22:31:20.581Z,30.72
2023-03-17T22:34:23.315Z,30.47
2023-03-17T22:37:25.760Z,30.43
2023-03-17T22:40:28.003Z,30.73
2023-03-17T22:43:30.402Z,30.25
2023-03-17T22:46:32.734Z,30.46
2023-03-17T22:49:34.959Z,30.46
2023-03-17T22:52:37.874Z,30.28
2023-03-17T22:55:40.097Z,30.34
2023-03-17T22:58:42.707Z,30.22
2023-03-17T23:01:46.155Z,30.55
2023-03-17T23:04:49.123Z,30.69
2023-03-17T23:07:51.854Z,30.79
2023-03-17T23:10:54.826Z,30.14
2023-03-17T23:13:57.468Z,30.59
2023-03-17T23:17:00.181Z,30.59
2023-03-17T23:20:05.445Z,30.43
2023-03-17T23:23:08.419Z,30.95
2023-03-17T23:26:11.089Z,30.56
2023-03-17T23:29:13.312Z,30.84
2023-03-17T23:32:15.611Z,31.07
2023-03-17T23:35:19.506Z,30.79
2023-03-17T23:38:21.970Z,30.69
2023-03-17T23:41:24.200Z,30.84
2023-03-17T23:44:27.109Z,30.79
2023-03-17T23:47:29.524Z,31.19
2023-03-17T23:50:32.034Z,30.83
2023-03-17T23:53:36.209Z,30.68
2023-03-17T23:56:38.387Z,30.86
2023-03-17T23:59:40.544Z,31.36
